Time;durP1;ratioP1;P1;durP2;ratioP2;P2;SDS_P1;SDS_P2;PMS_P1;PMS_P2;Temp;Humidity;BMP_temperature;BMP_pressure;BME280_temperature;BME280_humidity;BME280_pressure;Samples;Min_cycle;Max_cycle;Signal;HPM_P1;HPM_P2
2022/12/10 00:01:48;;;;;;;;;67.25;52.25;;;;;6.12;61.01;100329.03;5011796;28;45579;-60
2022/12/10 00:04:14;;;;;;;;;66.50;50.25;;;;;6.15;60.98;100348.63;5002526;28;45329;-65
2022/12/10 00:06:41;;;;;;;;;59.25;49.25;;;;;6.06;61.23;100327.09;5012413;28;45410;-61
2022/12/10 00:09:11;;;;;;;;;68.50;51.25;;;;;6.17;61.39;100346.97;5010074;28;45527;-60
2022/12/10 00:11:38;;;;;;;;;69.25;53.25;;;;;6.01;61.07;100311.00;5011939;28;45521;-64
2022/12/10 00:14:04;;;;;;;;;74.00;56.00;;;;;6.17;61.05;100341.66;5011469;28;45399;-60
2022/12/10 00:16:33;;;;;;;;;69.25;52.50;;;;;6.17;60.70;100357.56;5013507;28;45434;-60
2022/12/10 00:18:59;;;;;;;;;64.50;50.00;;;;;6.18;60.87;100353.16;5011765;28;46300;-62
2022/12/10 00:21:27;;;;;;;;;68.50;53.75;;;;;6.17;61.12;100357.56;5005004;28;45542;-61
2022/12/10 00:23:53;;;;;;;;;67.75;47.25;;;;;6.15;61.14;100342.44;5012941;28;45543;-60
2022/12/10 00:26:22;;;;;;;;;68.50;51.25;;;;;6.11;60.91;100329.91;5014785;28;45546;-61
2022/12/10 00:28:48;;;;;;;;;67.50;50.50;;;;;6.25;60.38;100345.50;5009388;28;46953;-60
2022/12/10 00:31:22;;;;;;;;;70.75;49.25;;;;;6.24;60.48;100348.09;5014141;28;45457;-59
2022/12/10 00:33:48;;;;;;;;;70.00;50.00;;;;;6.07;60.24;100323.56;5010782;28;45407;-63
2022/12/10 00:36:19;;;;;;;;;67.00;48.75;;;;;6.07;60.60;100340.41;5003113;28;45834;-61
2022/12/10 00:38:46;;;;;;;;;61.50;50.25;;;;;5.91;60.92;100335.31;5004733;28;46593;-64
2022/12/10 00:41:13;;;;;;;;;61.00;45.50;;;;;5.99;60.94;100356.84;5010729;28;45616;-60
2022/12/10 00:43:38;;;;;;;;;63.75;47.50;;;;;5.97;60.94;100364.75;5014013;28;45473;-62
2022/12/10 00:46:04;;;;;;;;;59.25;47.25;;;;;5.93;61.22;100362.78;5014117;28;45478;-61
2022/12/10 00:48:30;;;;;;;;;67.25;50.25;;;;;5.72;61.54;100312.50;5013334;28;45635;-65
2022/12/10 00:50:56;;;;;;;;;73.50;51.25;;;;;5.90;61.94;100357.38;5013290;28;45455;-60
2022/12/10 00:53:23;;;;;;;;;51.25;42.00;;;;;6.00;62.13;100370.16;5014372;28;45528;-61
2022/12/10 00:55:48;;;;;;;;;56.25;40.00;;;;;5.89;61.56;100342.31;5014654;28;45569;-62
2022/12/10 00:58:14;;;;;;;;;54.50;46.75;;;;;5.98;61.67;100361.25;5017915;28;48511;-64
2022/12/10 01:00:39;;;;;;;;;73.25;51.00;;;;;6.03;61.67;100364.09;5009544;28;45648;-60
2022/12/10 01:03:04;;;;;;;;;74.75;54.25;;;;;6.11;61.54;100359.09;5016306;28;45468;-63
2022/12/10 01:05:30;;;;;;;;;63.25;50.75;;;;;5.95;61.18;100331.03;5010291;28;45533;-66
2022/12/10 01:07:55;;;;;;;;;63.25;49.00;;;;;5.89;61.36;100348.53;5007398;28;46848;-68
2022/12/10 01:10:22;;;;;;;;;59.50;45.50;;;;;6.05;60.78;100371.25;5012914;28;45360;-64
2022/12/10 01:12:47;;;;;;;;;61.00;44.50;;;;;6.03;61.06;100358.78;5011592;28;45513;-62
2022/12/10 01:15:12;;;;;;;;;64.25;48.25;;;;;6.14;60.91;100372.44;5006444;28;45315;-63
2022/12/10 01:17:38;;;;;;;;;63.75;48.25;;;;;6.04;60.57;100355.31;5011364;28;45515;-63
2022/12/10 01:20:03;;;;;;;;;60.75;47.00;;;;;6.04;61.22;100368.56;5010980;28;45442;-61
2022/12/10 01:22:29;;;;;;;;;62.75;49.50;;;;;5.87;61.30;100351.94;5015207;28;45710;-60
2022/12/10 01:24:54;;;;;;;;;61.25;49.00;;;;;6.03;61.53;100380.00;5009868;28;45477;-61
2022/12/10 01:27:19;;;;;;;;;62.50;51.25;;;;;6.00;60.91;100390.47;5014774;28;45390;-61
2022/12/10 01:29:45;;;;;;;;;57.25;46.00;;;;;5.98;61.24;100377.16;5014421;28;50532;-61
2022/12/10 01:32:10;;;;;;;;;64.25;48.00;;;;;6.00;60.90;100380.78;5015191;28;45354;-61
2022/12/10 01:34:35;;;;;;;;;58.75;46.00;;;;;6.05;61.09;100395.09;5017081;28;45773;-62
2022/12/10 01:37:01;;;;;;;;;64.25;49.00;;;;;6.08;61.05;100392.56;5005187;28;45760;-62
2022/12/10 01:39:26;;;;;;;;;67.25;49.00;;;;;6.10;60.81;100411.22;5007733;28;45572;-60
2022/12/10 01:41:55;;;;;;;;;60.50;51.50;;;;;6.06;61.11;100398.69;5004813;28;45343;-63
2022/12/10 01:44:20;;;;;;;;;62.25;47.50;;;;;6.11;60.86;100406.81;5008625;28;45373;-59
2022/12/10 01:46:48;;;;;;;;;65.25;49.25;;;;;5.93;61.13;100405.22;5010204;28;46511;-61
2022/12/10 01:49:19;;;;;;;;;64.00;48.25;;;;;5.89;61.24;100392.69;5009155;28;45434;-61
2022/12/10 01:51:48;;;;;;;;;58.00;46.50;;;;;5.94;60.71;100392.84;5011980;28;45475;-61
2022/12/10 01:54:18;;;;;;;;;60.75;43.75;;;;;6.02;60.91;100410.00;5011893;28;45442;-61
2022/12/10 01:56:47;;;;;;;;;57.75;45.25;;;;;6.07;60.80;100425.28;5008738;28;46180;-61
2022/12/10 01:59:13;;;;;;;;;63.50;47.75;;;;;5.73;60.86;100376.16;5007994;28;45664;-61
2022/12/10 02:01:38;;;;;;;;;57.25;45.50;;;;;6.09;60.82;100442.13;5007017;28;45459;-59
2022/12/10 02:04:29;;;;;;;;;57.75;43.25;;;;;6.08;60.93;100432.34;5015526;28;45600;-62
2022/12/10 02:07:09;;;;;;;;;61.25;48.25;;;;;5.97;60.84;100420.41;5005153;28;45432;-61
2022/12/10 02:09:34;;;;;;;;;53.75;43.75;;;;;5.99;60.90;100433.75;5009844;28;45585;-62
2022/12/10 02:12:21;;;;;;;;;62.75;43.25;;;;;5.95;61.02;100438.00;5012075;28;45623;-62
2022/12/10 02:14:52;;;;;;;;;58.75;42.00;;;;;6.00;60.91;100443.53;4999604;28;45559;-62
2022/12/10 02:17:24;;;;;;;;;51.50;39.50;;;;;6.01;60.72;100434.72;5007564;28;46419;-60
2022/12/10 02:19:57;;;;;;;;;60.50;43.25;;;;;5.89;60.86;100421.88;5008794;28;45563;-61
2022/12/10 02:22:28;;;;;;;;;55.00;43.00;;;;;5.94;60.54;100428.25;5010383;28;45376;-60
2022/12/10 02:24:55;;;;;;;;;52.50;41.00;;;;;6.04;60.46;100454.31;5009222;28;45698;-61
2022/12/10 02:27:42;;;;;;;;;56.25;40.00;;;;;6.01;60.72;100442.69;5011587;28;47315;-60
2022/12/10 02:30:08;;;;;;;;;55.00;41.00;;;;;6.06;60.71;100454.38;5012228;28;45543;-63
2022/12/10 02:32:40;;;;;;;;;51.75;41.50;;;;;5.96;61.02;100447.81;5007944;28;45440;-61
2022/12/10 02:35:12;;;;;;;;;47.75;38.00;;;;;5.97;60.99;100451.34;5014157;28;45396;-59
2022/12/10 02:37:47;;;;;;;;;56.50;43.50;;;;;5.98;60.99;100440.81;5007553;28;46135;-61
2022/12/10 02:40:20;;;;;;;;;51.25;39.25;;;;;6.00;60.91;100438.22;5005847;28;45406;-61
2022/12/10 02:42:49;;;;;;;;;48.25;38.25;;;;;6.08;60.63;100452.69;5007425;28;45472;-60
2022/12/10 02:45:16;;;;;;;;;50.25;38.75;;;;;6.02;60.98;100437.44;5007750;28;45492;-60
2022/12/10 02:47:42;;;;;;;;;44.50;35.25;;;;;6.11;60.21;100449.25;5008813;28;46320;-63
2022/12/10 02:50:11;;;;;;;;;54.00;39.50;;;;;6.08;60.92;100453.56;5003232;28;45499;-64
2022/12/10 02:52:36;;;;;;;;;47.00;37.00;;;;;5.88;60.76;100420.03;5010080;28;45378;-62
2022/12/10 02:55:01;;;;;;;;;9.00;4.00;;;;;6.08;60.67;100447.38;5013698;28;45368;-62
2022/12/10 02:57:55;;;;;;;;;47.75;38.00;;;;;6.12;60.38;100449.31;5013796;28;46465;-66
2022/12/10 03:00:23;;;;;;;;;50.50;38.25;;;;;6.04;60.63;100446.34;5007353;28;45464;-66
2022/12/10 03:03:09;;;;;;;;;44.00;36.75;;;;;6.04;61.03;100453.41;5008046;28;45506;-63
2022/12/10 03:05:55;;;;;;;;;55.00;37.75;;;;;5.97;60.97;100438.97;5011143;28;45639;-67
2022/12/10 03:08:42;;;;;;;;;44.00;34.25;;;;;6.11;61.30;100451.91;5008974;28;45454;-66
2022/12/10 03:11:13;;;;;;;;;51.75;38.75;;;;;6.16;60.92;100447.69;5004349;28;45564;-67
2022/12/10 03:14:04;;;;;;;;;44.25;35.50;;;;;6.04;60.42;100433.09;5008960;28;45418;-68
2022/12/10 03:16:35;;;;;;;;;42.50;36.50;;;;;6.14;60.50;100454.66;5014184;28;45581;-60
2022/12/10 03:19:08;;;;;;;;;55.50;39.25;;;;;6.00;60.56;100417.00;5011276;28;46840;-62
2022/12/10 03:21:38;;;;;;;;;51.00;38.25;;;;;6.19;60.56;100448.72;5011904;28;45347;-61
2022/12/10 03:24:04;;;;;;;;;46.00;37.75;;;;;6.17;60.70;100457.44;5013487;28;45413;-62
2022/12/10 03:26:30;;;;;;;;;51.50;35.50;;;;;6.08;60.43;100445.63;5012884;28;45466;-62
2022/12/10 03:29:03;;;;;;;;;41.75;35.00;;;;;6.09;60.64;100452.75;5014398;28;45386;-60
2022/12/10 03:31:31;;;;;;;;;50.00;41.00;;;;;6.13;60.58;100461.72;5009484;28;45404;-62
2022/12/10 03:33:56;;;;;;;;;46.75;33.00;;;;;5.98;60.66;100450.50;5009681;28;45428;-62
2022/12/10 03:36:23;;;;;;;;;43.50;35.00;;;;;5.97;61.33;100436.31;5010053;28;45522;-60
2022/12/10 03:38:50;;;;;;;;;49.50;37.25;;;;;6.00;60.39;100454.13;5005515;28;45552;-60
2022/12/10 03:41:15;;;;;;;;;46.25;37.75;;;;;6.05;61.35;100469.38;5010598;28;45410;-59
2022/12/10 03:43:58;;;;;;;;;37.00;25.00;;;;;6.00;60.91;100456.78;5009976;28;45357;-61
2022/12/10 03:46:26;;;;;;;;;44.50;33.50;;;;;6.06;61.06;100470.28;5008086;28;45518;-61
2022/12/10 03:48:52;;;;;;;;;43.50;33.25;;;;;6.02;60.63;100460.38;5010632;28;45746;-59
2022/12/10 03:51:18;;;;;;;;;52.75;38.75;;;;;6.02;60.51;100458.66;5008105;28;45460;-60
2022/12/10 03:53:44;;;;;;;;;43.00;34.25;;;;;6.03;60.93;100452.50;5016873;28;45367;-61
2022/12/10 03:56:10;;;;;;;;;42.75;35.50;;;;;6.14;60.78;100471.50;5019443;28;45465;-60
2022/12/10 03:58:35;;;;;;;;;56.75;41.75;;;;;6.00;60.92;100444.41;5015987;28;45765;-66
2022/12/10 04:01:01;;;;;;;;;45.25;35.25;;;;;6.14;60.90;100474.16;5010204;28;45469;-60
2022/12/10 04:03:27;;;;;;;;;45.25;37.00;;;;;6.14;60.57;100475.88;5015342;28;45368;-62
2022/12/10 04:05:52;;;;;;;;;41.00;28.75;;;;;6.01;59.98;100454.19;5007236;28;45578;-63
2022/12/10 04:08:17;;;;;;;;;38.50;31.50;;;;;6.16;60.28;100476.88;5010268;28;46289;-60
2022/12/10 04:10:43;;;;;;;;;44.50;37.75;;;;;6.06;60.51;100465.88;5007885;28;45755;-63
2022/12/10 04:18:36;;;;;;;;;56.00;45.50;;;;;5.99;60.18;100466.50;5011485;28;45466;-60
2022/12/10 04:29:13;;;;;;;;;33.75;21.50;;;;;6.04;60.28;100477.28;5003561;28;46096;-61
2022/12/10 04:31:39;;;;;;;;;32.50;27.25;;;;;5.59;59.69;100398.56;5013900;28;45567;-63
2022/12/10 04:34:04;;;;;;;;;43.75;31.00;;;;;6.06;59.68;100476.50;5015563;28;45300;-63
2022/12/10 04:36:29;;;;;;;;;29.00;22.25;;;;;6.01;59.33;100470.09;5016840;28;45712;-65
2022/12/10 04:38:55;;;;;;;;;32.00;26.25;;;;;5.98;59.42;100475.28;5004827;28;45391;-63
2022/12/10 04:41:20;;;;;;;;;34.75;29.25;;;;;6.04;59.73;100479.94;5010933;28;45365;-63
2022/12/10 04:43:45;;;;;;;;;34.75;29.00;;;;;6.04;58.91;100474.63;5007589;28;45436;-64
2022/12/10 04:46:11;;;;;;;;;34.00;32.50;;;;;6.11;59.14;100486.41;5010691;28;45595;-62
2022/12/10 04:48:37;;;;;;;;;31.50;25.75;;;;;5.92;59.10;100461.72;5001751;28;48108;-66
2022/12/10 04:51:03;;;;;;;;;27.50;22.75;;;;;6.07;59.20;100496.88;5011284;28;45406;-64
2022/12/10 04:53:28;;;;;;;;;34.75;26.00;;;;;6.08;58.71;100490.72;5013411;28;45460;-65
2022/12/10 04:55:53;;;;;;;;;37.75;25.75;;;;;6.09;58.88;100489.88;5015434;28;45457;-64
2022/12/10 04:58:19;;;;;;;;;36.00;30.50;;;;;6.16;58.87;100487.47;5016256;28;53431;-65
2022/12/10 05:00:44;;;;;;;;;34.50;27.25;;;;;6.12;58.79;100497.06;5015140;28;45259;-63
2022/12/10 05:03:09;;;;;;;;;37.00;26.50;;;;;6.06;58.66;100486.19;5007143;28;45534;-66
2022/12/10 05:05:35;;;;;;;;;30.75;27.00;;;;;6.01;58.25;100477.16;5007996;28;45451;-65
2022/12/10 05:08:00;;;;;;;;;25.75;22.00;;;;;6.07;58.87;100488.91;5011826;28;45493;-65
2022/12/10 05:10:26;;;;;;;;;27.50;24.00;;;;;6.01;58.18;100478.06;5009374;28;45701;-66
2022/12/10 05:12:52;;;;;;;;;28.00;22.75;;;;;6.14;58.66;100495.38;5010623;28;45267;-65
2022/12/10 05:15:17;;;;;;;;;32.25;27.75;;;;;6.04;58.19;100478.19;5010689;28;45517;-67
2022/12/10 05:17:43;;;;;;;;;30.50;21.75;;;;;5.97;58.25;100470.81;5009109;28;45987;-64
2022/12/10 05:20:09;;;;;;;;;34.50;24.25;;;;;6.10;58.19;100488.13;5010264;28;45331;-63
2022/12/10 05:25:18;;;;;;;;;34.50;23.25;;;;;5.93;58.25;100468.84;5009038;28;45414;-61
2022/12/10 05:27:44;;;;;;;;;33.75;21.00;;;;;5.91;58.13;100459.94;5013462;28;46209;-61
2022/12/10 05:30:10;;;;;;;;;20.25;18.75;;;;;6.11;58.27;100492.59;5012259;28;50660;-61
2022/12/10 05:32:36;;;;;;;;;26.50;19.50;;;;;6.17;57.74;100511.41;5013599;28;45430;-62
2022/12/10 05:35:02;;;;;;;;;26.50;24.25;;;;;6.19;57.60;100508.81;5008308;28;45342;-63
2022/12/10 05:37:28;;;;;;;;;26.75;20.50;;;;;6.20;57.25;100513.25;5003150;28;46373;-62
2022/12/10 05:39:53;;;;;;;;;29.00;21.50;;;;;6.12;57.78;100496.13;5008626;28;45989;-61
2022/12/10 05:42:19;;;;;;;;;28.00;24.25;;;;;6.03;57.66;100484.31;5006214;28;45454;-63
2022/12/10 05:44:44;;;;;;;;;27.25;22.50;;;;;6.14;57.77;100505.97;5010306;28;45599;-59
2022/12/10 05:47:10;;;;;;;;;34.25;23.50;;;;;6.08;57.42;100514.56;5011159;28;45561;-62
2022/12/10 05:49:35;;;;;;;;;23.00;20.75;;;;;6.03;57.34;100517.91;5001990;28;45494;-62
2022/12/10 05:52:00;;;;;;;;;31.75;24.75;;;;;6.07;57.68;100530.44;5010304;28;45308;-63
2022/12/10 05:54:26;;;;;;;;;21.50;20.00;;;;;6.10;57.80;100533.22;5011501;28;45356;-61
2022/12/10 05:56:51;;;;;;;;;23.00;19.25;;;;;6.08;58.52;100540.22;5013211;28;45508;-62
2022/12/10 05:59:16;;;;;;;;;26.75;22.00;;;;;6.00;58.00;100520.41;5013764;28;45490;-62
2022/12/10 06:01:42;;;;;;;;;31.75;24.25;;;;;6.07;57.87;100526.06;5008126;28;45412;-60
2022/12/10 06:04:07;;;;;;;;;30.25;27.50;;;;;5.98;58.22;100503.56;5001923;28;45477;-62
2022/12/10 06:06:37;;;;;;;;;26.75;25.75;;;;;6.08;58.38;100522.53;5026572;28;46875;-64
2022/12/10 06:09:05;;;;;;;;;25.00;19.25;;;;;6.13;58.18;100532.44;5007694;28;45758;-61
2022/12/10 06:11:31;;;;;;;;;33.75;26.25;;;;;6.07;58.66;100525.13;5008489;28;45552;-61
2022/12/10 06:13:58;;;;;;;;;30.00;26.00;;;;;6.09;58.33;100518.16;5009887;28;45323;-61
2022/12/10 06:16:25;;;;;;;;;41.25;29.50;;;;;6.18;58.17;100544.13;5014291;28;46486;-61
2022/12/10 06:18:51;;;;;;;;;42.25;29.75;;;;;6.18;58.19;100536.19;5008116;28;45863;-60
2022/12/10 06:21:18;;;;;;;;;29.00;26.25;;;;;6.15;57.84;100544.00;5010160;28;45350;-62
2022/12/10 06:23:45;;;;;;;;;32.25;22.75;;;;;6.04;58.38;100532.97;5009305;28;45719;-62
2022/12/10 06:26:16;;;;;;;;;20.75;20.00;;;;;6.09;57.97;100548.22;5010515;28;45540;-59
2022/12/10 06:28:44;;;;;;;;;27.00;22.75;;;;;6.13;57.93;100561.63;5009248;28;45501;-59
2022/12/10 06:31:09;;;;;;;;;35.25;24.50;;;;;6.14;58.56;100553.72;5011987;28;45510;-59
2022/12/10 06:33:35;;;;;;;;;27.50;19.75;;;;;6.16;58.26;100561.75;5010667;28;45414;-64
2022/12/10 06:36:04;;;;;;;;;30.25;22.25;;;;;6.14;58.08;100558.09;5006787;28;45575;-61
2022/12/10 06:38:30;;;;;;;;;28.75;20.75;;;;;6.15;57.56;100567.88;5004647;28;45337;-60
2022/12/10 06:40:55;;;;;;;;;25.00;21.00;;;;;6.09;57.68;100569.44;5004175;28;45466;-62
2022/12/10 06:43:20;;;;;;;;;29.50;20.25;;;;;6.04;59.00;100564.81;5013969;28;45640;-61
2022/12/10 06:45:46;;;;;;;;;27.75;25.00;;;;;5.96;58.32;100552.94;5007813;28;56786;-61
2022/12/10 06:48:11;;;;;;;;;29.00;24.00;;;;;6.01;58.93;100578.81;5011397;28;45501;-63
2022/12/10 06:50:37;;;;;;;;;25.25;21.50;;;;;6.04;58.66;100580.72;5017084;28;46192;-61
2022/12/10 06:53:03;;;;;;;;;25.75;22.50;;;;;6.03;57.99;100574.50;5014928;28;45443;-62
2022/12/10 06:55:28;;;;;;;;;31.50;29.25;;;;;6.08;58.55;100580.88;5015554;28;45617;-64
2022/12/10 06:57:54;;;;;;;;;31.25;24.25;;;;;6.03;58.17;100569.19;5015830;28;45417;-62
2022/12/10 07:00:21;;;;;;;;;29.50;24.25;;;;;6.11;58.00;100579.22;5016613;28;45472;-65
2022/12/10 07:02:47;;;;;;;;;36.00;25.50;;;;;6.03;58.64;100577.13;5016982;28;45252;-65
2022/12/10 07:05:12;;;;;;;;;32.25;26.25;;;;;6.17;59.30;100587.41;5010657;28;47159;-64
2022/12/10 07:07:38;;;;;;;;;29.75;24.50;;;;;6.05;58.04;100569.25;5005571;28;45399;-62
2022/12/10 07:10:04;;;;;;;;;28.75;25.00;;;;;6.15;58.01;100592.66;5012831;28;45565;-64
2022/12/10 07:12:29;;;;;;;;;27.25;25.50;;;;;6.13;58.11;100590.78;5012748;28;45306;-62
2022/12/10 07:14:55;;;;;;;;;26.25;22.75;;;;;6.09;58.26;100605.69;5006553;28;46174;-67
2022/12/10 07:17:20;;;;;;;;;30.00;21.00;;;;;5.99;58.40;100585.81;5010175;28;45651;-65
2022/12/10 07:19:45;;;;;;;;;31.50;27.00;;;;;6.06;58.20;100590.53;5019973;28;45437;-59
2022/12/10 07:22:10;;;;;;;;;40.00;31.75;;;;;6.06;58.67;100594.94;5010330;28;45587;-61
2022/12/10 07:24:36;;;;;;;;;26.50;20.25;;;;;6.05;58.31;100585.16;5009339;28;46592;-61
2022/12/10 07:27:05;;;;;;;;;54.00;38.00;;;;;6.04;58.26;100589.56;5012640;28;45488;-63
2022/12/10 07:29:30;;;;;;;;;30.25;25.50;;;;;6.08;58.24;100604.75;5014852;28;45473;-61
2022/12/10 07:31:55;;;;;;;;;31.25;20.25;;;;;6.00;58.54;100600.88;5013342;28;45383;-60
2022/12/10 07:34:21;;;;;;;;;35.00;22.00;;;;;6.07;58.15;100615.28;5015507;28;46105;-59
2022/12/10 07:36:46;;;;;;;;;35.75;28.00;;;;;6.09;59.64;100618.94;5014294;28;45330;-61
2022/12/10 07:39:16;;;;;;;;;47.25;27.75;;;;;6.16;59.47;100612.16;5005642;28;45584;-62
2022/12/10 07:41:52;;;;;;;;;40.25;29.75;;;;;6.15;59.21;100616.53;5009839;28;45375;-66
2022/12/10 07:44:20;;;;;;;;;34.50;26.00;;;;;6.09;59.55;100595.97;5009109;28;45631;-63
2022/12/10 07:46:47;;;;;;;;;38.50;29.00;;;;;6.20;59.11;100614.06;5012749;28;45479;-62
2022/12/10 07:49:13;;;;;;;;;22.50;18.50;;;;;6.16;58.58;100606.84;5010261;28;45599;-61
2022/12/10 07:51:39;;;;;;;;;25.75;21.50;;;;;6.21;58.53;100618.53;5016463;28;45641;-58
2022/12/10 07:54:04;;;;;;;;;20.50;17.00;;;;;6.16;58.15;100617.44;5011808;28;47330;-62
2022/12/10 07:56:30;;;;;;;;;28.25;23.75;;;;;6.24;58.85;100632.84;5014577;28;45566;-62
2022/12/10 07:58:55;;;;;;;;;87.75;69.50;;;;;6.15;59.10;100627.13;5014389;28;45539;-65
2022/12/10 08:01:24;;;;;;;;;29.25;26.75;;;;;6.17;58.40;100622.81;5014295;28;45603;-61
2022/12/10 08:03:50;;;;;;;;;31.50;18.50;;;;;6.15;58.96;100640.41;5009269;28;45518;-65
2022/12/10 08:06:19;;;;;;;;;25.25;20.50;;;;;6.15;58.75;100634.19;5008773;28;45360;-62
2022/12/10 08:08:44;;;;;;;;;31.00;25.50;;;;;6.20;58.35;100641.53;5015747;28;45391;-62
2022/12/10 08:11:11;;;;;;;;;31.75;22.50;;;;;6.23;58.38;100632.78;5013911;28;45635;-62
2022/12/10 08:13:37;;;;;;;;;29.50;24.00;;;;;6.30;59.04;100644.53;5014138;28;46338;-63
2022/12/10 08:16:04;;;;;;;;;22.50;18.00;;;;;6.31;58.17;100641.97;5004946;28;45458;-61
2022/12/10 08:18:30;;;;;;;;;25.75;22.50;;;;;6.34;58.79;100658.00;5007325;28;45585;-60
2022/12/10 08:20:55;;;;;;;;;40.75;20.75;;;;;6.33;59.18;100655.28;5012869;28;45481;-59
2022/12/10 08:23:21;;;;;;;;;27.50;23.00;;;;;6.27;58.66;100666.56;5014233;28;52777;-60
2022/12/10 08:25:46;;;;;;;;;30.25;22.25;;;;;6.25;58.30;100661.19;5013436;28;45517;-62
2022/12/10 08:28:11;;;;;;;;;42.00;35.50;;;;;6.22;59.14;100671.66;5012514;28;45505;-60
2022/12/10 08:30:37;;;;;;;;;27.50;23.25;;;;;6.23;58.96;100673.47;5013410;28;50052;-60
2022/12/10 08:33:02;;;;;;;;;32.75;27.50;;;;;6.25;58.95;100684.13;5000833;28;46124;-63
2022/12/10 08:35:28;;;;;;;;;31.25;29.50;;;;;6.30;59.08;100677.28;5012785;28;45303;-61
2022/12/10 08:37:53;;;;;;;;;34.25;26.00;;;;;6.21;59.04;100667.19;5014681;28;45927;-63
2022/12/10 08:40:18;;;;;;;;;26.00;22.25;;;;;6.35;59.15;100683.72;5010252;28;45345;-63
2022/12/10 08:42:44;;;;;;;;;31.00;20.75;;;;;6.30;58.82;100684.34;5007717;28;45432;-63
2022/12/10 08:45:09;;;;;;;;;23.75;20.75;;;;;6.33;58.90;100692.44;5010052;28;45466;-63
2022/12/10 08:47:35;;;;;;;;;30.00;25.75;;;;;6.33;58.86;100684.47;5009295;28;45442;-59
2022/12/10 08:50:00;;;;;;;;;23.00;18.50;;;;;6.09;58.61;100662.28;5012673;28;45812;-63
2022/12/10 08:52:28;;;;;;;;;31.00;23.00;;;;;6.25;59.38;100690.38;5010533;28;46491;-60
2022/12/10 08:54:54;;;;;;;;;25.50;23.75;;;;;6.20;59.31;100685.69;5018376;28;45515;-61
2022/12/10 08:57:19;;;;;;;;;28.50;24.50;;;;;6.16;59.69;100668.75;5011148;28;45421;-61
2022/12/10 08:59:45;;;;;;;;;50.00;38.25;;;;;6.24;58.80;100679.69;5011187;28;45727;-61
2022/12/10 09:02:11;;;;;;;;;36.25;31.00;;;;;6.41;59.37;100697.22;5013898;28;45426;-60
2022/12/10 09:04:36;;;;;;;;;42.50;32.00;;;;;6.34;58.78;100679.25;5005467;28;45597;-60
2022/12/10 09:07:03;;;;;;;;;36.25;28.50;;;;;6.38;58.79;100691.78;5019343;28;45852;-62
2022/12/10 09:09:28;;;;;;;;;25.00;19.50;;;;;6.39;58.27;100693.59;5001558;28;45426;-59
2022/12/10 09:11:54;;;;;;;;;33.00;23.75;;;;;6.44;58.21;100697.34;5009822;28;45477;-61
2022/12/10 09:14:19;;;;;;;;;39.00;28.00;;;;;6.45;58.26;100704.50;5013801;28;45452;-62
2022/12/10 09:16:44;;;;;;;;;28.25;19.50;;;;;6.41;58.37;100702.53;5009081;28;45291;-64
2022/12/10 09:19:10;;;;;;;;;27.75;19.25;;;;;6.36;57.81;100714.69;5012093;28;45605;-62
2022/12/10 09:21:35;;;;;;;;;26.25;22.50;;;;;6.32;58.31;100723.38;5006823;28;45677;-61
2022/12/10 09:24:01;;;;;;;;;25.75;20.25;;;;;6.33;58.36;100727.81;5009614;28;45633;-61
2022/12/10 09:26:27;;;;;;;;;25.75;20.50;;;;;6.28;58.56;100709.06;5009938;28;45526;-62
2022/12/10 09:28:52;;;;;;;;;27.50;24.75;;;;;6.43;58.29;100721.16;5010526;28;45493;-61
2022/12/10 09:31:19;;;;;;;;;34.25;24.25;;;;;6.39;57.90;100720.13;5012764;28;46069;-61
2022/12/10 09:33:45;;;;;;;;;33.25;24.25;;;;;6.27;58.09;100722.28;5003945;28;45459;-62
2022/12/10 09:36:12;;;;;;;;;24.75;19.00;;;;;6.20;58.61;100726.41;5014191;28;45375;-63
2022/12/10 09:38:40;;;;;;;;;26.00;22.25;;;;;6.05;58.46;100713.34;5011605;28;45467;-61
2022/12/10 09:41:30;;;;;;;;;25.25;16.25;;;;;6.13;58.71;100726.06;5006673;28;45861;-60
2022/12/10 09:44:05;;;;;;;;;30.25;19.50;;;;;6.18;57.59;100717.47;5007226;28;45424;-60
2022/12/10 09:46:53;;;;;;;;;26.25;23.75;;;;;6.25;58.51;100727.53;5007804;28;45511;-61
2022/12/10 09:49:58;;;;;;;;;37.00;22.50;;;;;6.31;57.98;100726.88;5010565;28;45304;-61
2022/12/10 09:52:26;;;;;;;;;30.00;25.00;;;;;6.36;57.45;100714.69;4999025;28;48180;-63
2022/12/10 09:54:56;;;;;;;;;28.50;20.00;;;;;6.15;56.98;100688.16;5011638;28;45549;-59
2022/12/10 09:57:53;;;;;;;;;24.00;22.75;;;;;6.47;56.87;100733.75;5010882;28;45428;-62
2022/12/10 10:00:41;;;;;;;;;29.25;24.25;;;;;6.38;56.61;100718.31;4990953;28;45685;-59
2022/12/10 10:03:13;;;;;;;;;29.75;25.75;;;;;6.47;57.51;100733.75;5003471;28;45427;-60
2022/12/10 10:05:42;;;;;;;;;35.50;31.25;;;;;6.54;57.17;100725.19;5005338;28;45316;-60
2022/12/10 10:08:19;;;;;;;;;27.75;19.75;;;;;6.66;56.67;100735.41;5005979;28;45355;-60
2022/12/10 10:10:44;;;;;;;;;27.75;19.50;;;;;6.67;56.22;100736.34;5008335;28;45354;-60
2022/12/10 10:13:26;;;;;;;;;32.25;26.75;;;;;6.66;56.84;100732.75;5003829;28;47351;-61
2022/12/10 10:15:52;;;;;;;;;40.00;24.50;;;;;6.70;56.52;100733.78;5014584;28;45458;-59
2022/12/10 10:18:17;;;;;;;;;29.50;21.00;;;;;6.68;56.76;100725.75;5005633;28;45586;-59
2022/12/10 10:20:43;;;;;;;;;32.50;27.00;;;;;6.59;56.62;100696.19;5008441;28;45715;-61
2022/12/10 10:23:14;;;;;;;;;38.75;27.00;;;;;6.67;56.13;100707.13;5011655;28;45474;-61
2022/12/10 10:25:40;;;;;;;;;34.75;27.50;;;;;6.75;56.47;100719.88;5013073;28;45376;-60
2022/12/10 10:28:09;;;;;;;;;31.00;28.25;;;;;6.76;55.97;100726.09;5014531;28;45646;-62
2022/12/10 10:30:34;;;;;;;;;29.00;26.25;;;;;6.77;56.34;100720.84;5015320;28;45425;-62
2022/12/10 10:33:08;;;;;;;;;33.00;29.75;;;;;6.80;56.03;100722.72;5015992;28;47115;-62
2022/12/10 10:35:44;;;;;;;;;33.25;22.00;;;;;6.81;55.81;100724.53;5015914;28;45452;-62
2022/12/10 10:38:20;;;;;;;;;34.50;28.50;;;;;6.74;55.60;100722.47;5013507;28;46219;-61
2022/12/10 10:40:50;;;;;;;;;25.50;23.25;;;;;6.77;56.33;100728.81;5010496;28;45649;-63
2022/12/10 10:43:22;;;;;;;;;38.50;28.50;;;;;6.82;55.46;100723.69;5010470;28;46493;-64
2022/12/10 10:46:00;;;;;;;;;2.00;2.00;;;;;6.72;55.85;100708.22;5011488;28;45538;-65
2022/12/10 10:48:27;;;;;;;;;28.50;22.25;;;;;6.78;55.85;100722.66;5011916;28;45276;-65
2022/12/10 10:51:04;;;;;;;;;30.75;24.25;;;;;6.72;55.52;100729.47;5012996;28;45467;-65
2022/12/10 10:53:44;;;;;;;;;40.25;29.00;;;;;6.67;56.64;100733.69;5013279;28;45604;-60
2022/12/10 10:56:16;;;;;;;;;31.00;23.50;;;;;6.66;55.74;100711.53;5007658;28;45548;-61
2022/12/10 10:59:18;;;;;;;;;31.00;24.50;;;;;6.85;55.50;100723.81;5013391;28;45409;-63
2022/12/10 11:01:50;;;;;;;;;27.00;26.25;;;;;6.92;55.89;100730.28;5013931;28;45633;-61
2022/12/10 11:04:17;;;;;;;;;27.25;23.50;;;;;7.01;55.26;100735.94;5005278;28;45607;-63
2022/12/10 11:06:44;;;;;;;;;29.75;27.25;;;;;6.89;55.13;100715.13;5008534;28;45487;-62
2022/12/10 11:09:20;;;;;;;;;34.00;28.50;;;;;7.10;54.81;100738.09;5011045;28;45309;-61
2022/12/10 11:11:50;;;;;;;;;42.25;32.50;;;;;7.10;55.48;100736.34;5011494;28;45528;-62
2022/12/10 11:14:24;;;;;;;;;47.00;36.25;;;;;7.00;54.89;100712.91;5008870;28;45406;-63
2022/12/10 11:16:50;;;;;;;;;33.75;29.25;;;;;7.22;54.96;100737.66;5003980;28;45299;-62
2022/12/10 11:19:22;;;;;;;;;28.75;25.00;;;;;7.14;54.61;100740.00;5011046;28;45336;-61
2022/12/10 11:21:48;;;;;;;;;38.25;26.75;;;;;7.10;55.38;100732.78;5005485;28;45467;-62
2022/12/10 11:24:16;;;;;;;;;26.00;24.00;;;;;7.08;55.25;100727.41;5018803;28;47544;-65
2022/12/10 11:27:02;;;;;;;;;30.00;28.25;;;;;7.08;55.03;100729.13;5005997;28;45529;-63
2022/12/10 11:29:53;;;;;;;;;28.25;25.50;;;;;7.14;55.09;100727.66;5009372;28;45513;-62
2022/12/10 11:32:40;;;;;;;;;44.75;37.50;;;;;7.16;54.52;100722.38;5014156;28;45447;-62
2022/12/10 11:35:32;;;;;;;;;55.25;41.50;;;;;7.26;54.57;100723.66;5014172;28;46250;-60
2022/12/10 11:38:19;;;;;;;;;29.50;26.00;;;;;7.34;54.43;100717.81;5015819;28;45422;-62
2022/12/10 11:40:50;;;;;;;;;36.50;28.25;;;;;7.30;54.22;100702.56;5009825;28;45231;-62